Aviation Digital Data Service (ADDS)

Output produced by METARs form (1935 UTC 23 January 2019)
found at http://www.aviationweather.gov/metar/data/
 
Forecast for: LEPA (PALMA DE MALLORC, ES)
Text: TAF LEPA 231700Z 2318/2418 32018KT 9999 SCT020 TX12/2414Z TN04/2406Z
Forecast period: 1800 UTC 23 January 2019 to 1600 UTC 24 January 2019
Forecast type: FROM: standard forecast or significant change
Winds: from the NW (320 degrees) at 21 MPH (18 knots; 9.3 m/s)
Visibility: 6 or more miles 10+ km)
Ceiling: at least 12,000 feet AGL
Clouds: scattered clouds at 2000 feet AGL
Weather: no significant weather forecast for this period
Text: TEMPO 2318/2412 32020G34KT
Forecast period: 1800 UTC 23 January 2019 to 1200 UTC 24 January 2019
Forecast type: TEMPORARY: The following changes expected for less than half the time period
Winds: from the NW (320 degrees) at 23 MPH (20 knots; 10.3 m/s)
gusting to 39 MPH (34 knots; 17.5 m/s)
Visibility: missing
Ceiling: unknown
Clouds: missing
Weather: no significant weather forecast for this period
Text: BECMG 2416/2418 03005KT
Forecast period: 1600 to 1800 UTC 24 January 2019
Forecast type: BECOMING: Conditions expected to become as follows by 1800 UTC 24 January 2019
Winds: from the NNE (30 degrees) at 6 MPH (5 knots; 2.6 m/s)
Visibility: 6 or more miles 10+ km)
Ceiling: at least 12,000 feet AGL
Clouds: scattered clouds at 2000 feet AGL
Weather: no significant weather forecast for this period